sensor_id;sensor_type;location;lat;lon;timestamp;temperature;humidity
12268;DHT22;6196;48.398;11.736;2023-02-04T00:00:12;6.00;99.90
12268;DHT22;6196;48.398;11.736;2023-02-04T00:02:41;6.00;99.90
12268;DHT22;6196;48.398;11.736;2023-02-04T00:05:09;6.10;99.90
12268;DHT22;6196;48.398;11.736;2023-02-04T00:07:37;6.10;99.90
12268;DHT22;6196;48.398;11.736;2023-02-04T00:10:07;6.10;99.90
12268;DHT22;6196;48.398;11.736;2023-02-04T00:12:35;6.20;99.90
12268;DHT22;6196;48.398;11.736;2023-02-04T00:15:02;6.10;99.90
12268;DHT22;6196;48.398;11.736;2023-02-04T00:17:30;6.10;99.90
12268;DHT22;6196;48.398;11.736;2023-02-04T00:19:57;6.10;99.90
12268;DHT22;6196;48.398;11.736;2023-02-04T00:22:24;6.20;99.90
12268;DHT22;6196;48.398;11.736;2023-02-04T00:24:53;6.30;99.90
12268;DHT22;6196;48.398;11.736;2023-02-04T00:27:20;6.10;99.90
12268;DHT22;6196;48.398;11.736;2023-02-04T00:29:47;6.10;99.90
12268;DHT22;6196;48.398;11.736;2023-02-04T00:32:14;6.10;99.90
12268;DHT22;6196;48.398;11.736;2023-02-04T00:34:41;6.10;99.90
12268;DHT22;6196;48.398;11.736;2023-02-04T00:37:08;6.30;99.90
12268;DHT22;6196;48.398;11.736;2023-02-04T00:39:35;6.20;99.90
12268;DHT22;6196;48.398;11.736;2023-02-04T00:42:02;6.10;99.90
12268;DHT22;6196;48.398;11.736;2023-02-04T00:44:31;6.00;99.90
12268;DHT22;6196;48.398;11.736;2023-02-04T00:46:58;5.90;99.90
12268;DHT22;6196;48.398;11.736;2023-02-04T00:49:25;5.90;99.90
12268;DHT22;6196;48.398;11.736;2023-02-04T00:51:51;5.90;99.90
12268;DHT22;6196;48.398;11.736;2023-02-04T00:54:18;5.90;99.90
12268;DHT22;6196;48.398;11.736;2023-02-04T00:56:45;5.90;99.90
12268;DHT22;6196;48.398;11.736;2023-02-04T00:59:13;5.80;99.90
12268;DHT22;6196;48.398;11.736;2023-02-04T01:01:39;5.80;99.90
12268;DHT22;6196;48.398;11.736;2023-02-04T01:04:06;6.00;99.90
12268;DHT22;6196;48.398;11.736;2023-02-04T01:06:33;5.80;99.90
12268;DHT22;6196;48.398;11.736;2023-02-04T01:09:01;5.80;99.90
12268;DHT22;6196;48.398;11.736;2023-02-04T01:11:29;5.80;99.90
12268;DHT22;6196;48.398;11.736;2023-02-04T01:13:57;5.80;99.90
12268;DHT22;6196;48.398;11.736;2023-02-04T01:16:24;5.70;99.90
12268;DHT22;6196;48.398;11.736;2023-02-04T01:18:51;5.70;99.90
12268;DHT22;6196;48.398;11.736;2023-02-04T01:21:22;5.80;99.90
12268;DHT22;6196;48.398;11.736;2023-02-04T01:23:49;5.60;99.90
12268;DHT22;6196;48.398;11.736;2023-02-04T01:26:17;5.60;99.90
12268;DHT22;6196;48.398;11.736;2023-02-04T01:28:45;5.50;99.90
12268;DHT22;6196;48.398;11.736;2023-02-04T01:31:12;5.60;99.90
12268;DHT22;6196;48.398;11.736;2023-02-04T01:33:39;5.60;99.90
12268;DHT22;6196;48.398;11.736;2023-02-04T01:36:06;5.60;99.90
12268;DHT22;6196;48.398;11.736;2023-02-04T01:38:33;5.50;99.90
12268;DHT22;6196;48.398;11.736;2023-02-04T01:41:00;5.60;99.90
12268;DHT22;6196;48.398;11.736;2023-02-04T01:43:28;5.50;99.90
12268;DHT22;6196;48.398;11.736;2023-02-04T01:45:55;5.50;99.90
12268;DHT22;6196;48.398;11.736;2023-02-04T01:48:22;5.50;99.90
12268;DHT22;6196;48.398;11.736;2023-02-04T01:50:52;5.50;99.90
12268;DHT22;6196;48.398;11.736;2023-02-04T01:53:23;5.50;99.90
12268;DHT22;6196;48.398;11.736;2023-02-04T01:55:51;5.50;99.90
12268;DHT22;6196;48.398;11.736;2023-02-04T01:58:18;5.40;99.90
12268;DHT22;6196;48.398;11.736;2023-02-04T02:00:45;5.40;99.90
12268;DHT22;6196;48.398;11.736;2023-02-04T02:03:12;5.40;99.90
12268;DHT22;6196;48.398;11.736;2023-02-04T02:05:43;5.40;99.90
12268;DHT22;6196;48.398;11.736;2023-02-04T02:08:12;5.40;99.90
12268;DHT22;6196;48.398;11.736;2023-02-04T02:10:41;5.30;99.90
12268;DHT22;6196;48.398;11.736;2023-02-04T02:13:16;5.30;99.90
12268;DHT22;6196;48.398;11.736;2023-02-04T02:15:45;5.40;99.90
12268;DHT22;6196;48.398;11.736;2023-02-04T02:18:12;5.40;99.90
12268;DHT22;6196;48.398;11.736;2023-02-04T02:20:42;5.40;99.90
12268;DHT22;6196;48.398;11.736;2023-02-04T02:26:16;5.40;99.90
12268;DHT22;6196;48.398;11.736;2023-02-04T02:28:44;5.30;99.90
12268;DHT22;6196;48.398;11.736;2023-02-04T02:31:14;5.30;99.90
12268;DHT22;6196;48.398;11.736;2023-02-04T02:33:42;5.30;99.90
12268;DHT22;6196;48.398;11.736;2023-02-04T02:36:09;5.30;99.90
12268;DHT22;6196;48.398;11.736;2023-02-04T02:38:36;5.30;99.90
12268;DHT22;6196;48.398;11.736;2023-02-04T02:41:04;5.40;99.90
12268;DHT22;6196;48.398;11.736;2023-02-04T02:43:31;5.30;99.90
12268;DHT22;6196;48.398;11.736;2023-02-04T02:45:58;5.30;99.90
12268;DHT22;6196;48.398;11.736;2023-02-04T02:48:26;5.20;99.90
12268;DHT22;6196;48.398;11.736;2023-02-04T02:50:53;5.30;99.90
12268;DHT22;6196;48.398;11.736;2023-02-04T02:53:20;5.30;99.90
12268;DHT22;6196;48.398;11.736;2023-02-04T02:55:48;5.30;99.90
12268;DHT22;6196;48.398;11.736;2023-02-04T02:58:28;5.30;99.90
12268;DHT22;6196;48.398;11.736;2023-02-04T03:01:02;5.30;99.90
12268;DHT22;6196;48.398;11.736;2023-02-04T03:03:44;5.30;99.90
12268;DHT22;6196;48.398;11.736;2023-02-04T03:06:24;5.20;99.90
12268;DHT22;6196;48.398;11.736;2023-02-04T03:08:54;5.20;99.90
12268;DHT22;6196;48.398;11.736;2023-02-04T03:11:23;5.10;99.90
12268;DHT22;6196;48.398;11.736;2023-02-04T03:13:52;5.00;99.90
12268;DHT22;6196;48.398;11.736;2023-02-04T03:16:19;4.90;99.90
12268;DHT22;6196;48.398;11.736;2023-02-04T03:18:46;4.80;99.90
12268;DHT22;6196;48.398;11.736;2023-02-04T03:21:13;4.80;99.90
12268;DHT22;6196;48.398;11.736;2023-02-04T03:23:40;4.70;99.90
12268;DHT22;6196;48.398;11.736;2023-02-04T03:26:07;4.60;99.90
12268;DHT22;6196;48.398;11.736;2023-02-04T03:28:38;4.50;99.90
12268;DHT22;6196;48.398;11.736;2023-02-04T03:31:06;4.40;99.90
12268;DHT22;6196;48.398;11.736;2023-02-04T03:33:33;4.30;99.90
12268;DHT22;6196;48.398;11.736;2023-02-04T03:36:01;4.20;99.90
12268;DHT22;6196;48.398;11.736;2023-02-04T03:38:28;4.20;99.90
12268;DHT22;6196;48.398;11.736;2023-02-04T03:40:55;4.20;99.90
12268;DHT22;6196;48.398;11.736;2023-02-04T03:43:22;4.10;99.90
12268;DHT22;6196;48.398;11.736;2023-02-04T03:45:48;4.10;99.90
12268;DHT22;6196;48.398;11.736;2023-02-04T03:48:15;4.20;99.90
12268;DHT22;6196;48.398;11.736;2023-02-04T03:50:42;4.20;99.90
12268;DHT22;6196;48.398;11.736;2023-02-04T03:53:09;4.20;99.90
12268;DHT22;6196;48.398;11.736;2023-02-04T03:55:36;4.30;99.90
12268;DHT22;6196;48.398;11.736;2023-02-04T03:58:03;4.20;99.90
12268;DHT22;6196;48.398;11.736;2023-02-04T04:00:30;4.10;99.90
12268;DHT22;6196;48.398;11.736;2023-02-04T04:02:58;4.10;99.90
12268;DHT22;6196;48.398;11.736;2023-02-04T04:05:25;4.20;99.90
12268;DHT22;6196;48.398;11.736;2023-02-04T04:07:54;4.20;99.90
12268;DHT22;6196;48.398;11.736;2023-02-04T04:10:21;4.20;99.90
12268;DHT22;6196;48.398;11.736;2023-02-04T04:12:48;4.30;99.90
12268;DHT22;6196;48.398;11.736;2023-02-04T04:15:15;4.30;99.90
12268;DHT22;6196;48.398;11.736;2023-02-04T04:17:42;4.30;99.90
12268;DHT22;6196;48.398;11.736;2023-02-04T04:20:09;4.30;99.90
12268;DHT22;6196;48.398;11.736;2023-02-04T04:22:36;4.30;99.90
12268;DHT22;6196;48.398;11.736;2023-02-04T04:25:03;4.40;99.90
12268;DHT22;6196;48.398;11.736;2023-02-04T04:27:31;4.40;99.90
12268;DHT22;6196;48.398;11.736;2023-02-04T04:29:58;4.40;99.90
12268;DHT22;6196;48.398;11.736;2023-02-04T04:32:24;4.40;99.90
12268;DHT22;6196;48.398;11.736;2023-02-04T04:34:51;4.40;99.90
12268;DHT22;6196;48.398;11.736;2023-02-04T04:37:18;4.40;99.90
12268;DHT22;6196;48.398;11.736;2023-02-04T04:39:45;4.40;99.90
12268;DHT22;6196;48.398;11.736;2023-02-04T04:42:12;4.30;99.90
12268;DHT22;6196;48.398;11.736;2023-02-04T04:44:39;4.30;99.90
12268;DHT22;6196;48.398;11.736;2023-02-04T04:47:05;4.30;99.90
12268;DHT22;6196;48.398;11.736;2023-02-04T04:49:32;4.20;99.90
12268;DHT22;6196;48.398;11.736;2023-02-04T04:51:59;4.20;99.90
12268;DHT22;6196;48.398;11.736;2023-02-04T04:54:26;4.10;99.90
12268;DHT22;6196;48.398;11.736;2023-02-04T04:56:53;4.10;99.90
12268;DHT22;6196;48.398;11.736;2023-02-04T04:59:20;4.10;99.90
12268;DHT22;6196;48.398;11.736;2023-02-04T05:01:47;4.10;99.90
12268;DHT22;6196;48.398;11.736;2023-02-04T05:04:13;4.20;99.90
12268;DHT22;6196;48.398;11.736;2023-02-04T05:06:40;4.20;99.90
12268;DHT22;6196;48.398;11.736;2023-02-04T05:09:07;4.20;99.90
12268;DHT22;6196;48.398;11.736;2023-02-04T05:11:35;4.10;99.90
12268;DHT22;6196;48.398;11.736;2023-02-04T05:14:02;4.20;99.90
12268;DHT22;6196;48.398;11.736;2023-02-04T05:16:29;4.20;99.90
12268;DHT22;6196;48.398;11.736;2023-02-04T05:18:56;4.20;99.90
12268;DHT22;6196;48.398;11.736;2023-02-04T05:21:22;4.20;99.90
12268;DHT22;6196;48.398;11.736;2023-02-04T05:23:49;4.20;99.90
12268;DHT22;6196;48.398;11.736;2023-02-04T05:26:16;4.20;99.90
12268;DHT22;6196;48.398;11.736;2023-02-04T05:28:55;4.20;99.90
12268;DHT22;6196;48.398;11.736;2023-02-04T05:31:22;4.20;99.90
12268;DHT22;6196;48.398;11.736;2023-02-04T05:33:49;4.20;99.90
12268;DHT22;6196;48.398;11.736;2023-02-04T05:36:16;4.20;99.90
12268;DHT22;6196;48.398;11.736;2023-02-04T05:38:43;4.20;99.90
12268;DHT22;6196;48.398;11.736;2023-02-04T05:41:10;4.20;99.90
12268;DHT22;6196;48.398;11.736;2023-02-04T05:43:38;4.20;99.90
12268;DHT22;6196;48.398;11.736;2023-02-04T05:46:05;4.20;99.90
12268;DHT22;6196;48.398;11.736;2023-02-04T05:48:32;4.20;99.90
12268;DHT22;6196;48.398;11.736;2023-02-04T05:50:59;4.30;99.90
12268;DHT22;6196;48.398;11.736;2023-02-04T05:53:26;4.30;99.90
12268;DHT22;6196;48.398;11.736;2023-02-04T05:55:52;4.30;99.90
12268;DHT22;6196;48.398;11.736;2023-02-04T05:58:19;4.30;99.90
12268;DHT22;6196;48.398;11.736;2023-02-04T06:00:46;4.30;99.90
12268;DHT22;6196;48.398;11.736;2023-02-04T06:03:13;4.30;99.90
12268;DHT22;6196;48.398;11.736;2023-02-04T06:05:40;4.30;99.90
12268;DHT22;6196;48.398;11.736;2023-02-04T06:08:07;4.20;99.90
12268;DHT22;6196;48.398;11.736;2023-02-04T06:10:34;4.30;99.90
12268;DHT22;6196;48.398;11.736;2023-02-04T06:13:00;4.20;99.90
12268;DHT22;6196;48.398;11.736;2023-02-04T06:15:27;4.20;99.90
12268;DHT22;6196;48.398;11.736;2023-02-04T06:17:54;4.20;99.90
12268;DHT22;6196;48.398;11.736;2023-02-04T06:20:21;4.20;99.90
12268;DHT22;6196;48.398;11.736;2023-02-04T06:22:48;4.20;99.90
12268;DHT22;6196;48.398;11.736;2023-02-04T06:25:17;4.30;99.90
12268;DHT22;6196;48.398;11.736;2023-02-04T06:27:44;4.30;99.90
12268;DHT22;6196;48.398;11.736;2023-02-04T06:30:12;4.20;99.90
12268;DHT22;6196;48.398;11.736;2023-02-04T06:32:40;4.20;99.90
12268;DHT22;6196;48.398;11.736;2023-02-04T06:35:07;4.20;99.90
12268;DHT22;6196;48.398;11.736;2023-02-04T06:37:35;4.30;99.90
12268;DHT22;6196;48.398;11.736;2023-02-04T06:40:01;4.20;99.90
12268;DHT22;6196;48.398;11.736;2023-02-04T06:42:28;4.20;99.90
12268;DHT22;6196;48.398;11.736;2023-02-04T06:44:55;4.20;99.90
12268;DHT22;6196;48.398;11.736;2023-02-04T06:47:22;4.20;99.90
12268;DHT22;6196;48.398;11.736;2023-02-04T06:49:49;4.20;99.90
12268;DHT22;6196;48.398;11.736;2023-02-04T06:52:16;4.20;99.90
12268;DHT22;6196;48.398;11.736;2023-02-04T06:54:43;4.40;99.90
12268;DHT22;6196;48.398;11.736;2023-02-04T06:57:09;4.30;99.90
12268;DHT22;6196;48.398;11.736;2023-02-04T06:59:38;4.30;99.90
12268;DHT22;6196;48.398;11.736;2023-02-04T07:02:07;4.40;99.90
12268;DHT22;6196;48.398;11.736;2023-02-04T07:04:34;4.30;99.90
12268;DHT22;6196;48.398;11.736;2023-02-04T07:07:01;4.30;99.90
12268;DHT22;6196;48.398;11.736;2023-02-04T07:09:28;4.30;99.90
12268;DHT22;6196;48.398;11.736;2023-02-04T07:11:55;4.30;99.90
12268;DHT22;6196;48.398;11.736;2023-02-04T07:14:22;4.30;99.90
12268;DHT22;6196;48.398;11.736;2023-02-04T07:16:49;4.40;99.90
12268;DHT22;6196;48.398;11.736;2023-02-04T07:19:15;4.50;99.90
12268;DHT22;6196;48.398;11.736;2023-02-04T07:21:43;4.50;99.90
12268;DHT22;6196;48.398;11.736;2023-02-04T07:24:10;4.50;99.90
12268;DHT22;6196;48.398;11.736;2023-02-04T07:26:37;4.70;99.90
12268;DHT22;6196;48.398;11.736;2023-02-04T07:29:04;4.80;99.90
12268;DHT22;6196;48.398;11.736;2023-02-04T07:31:37;4.80;99.90
12268;DHT22;6196;48.398;11.736;2023-02-04T07:34:04;4.80;99.90
12268;DHT22;6196;48.398;11.736;2023-02-04T07:36:31;4.80;99.90
12268;DHT22;6196;48.398;11.736;2023-02-04T07:38:58;4.80;99.90
12268;DHT22;6196;48.398;11.736;2023-02-04T07:41:25;4.90;99.90
12268;DHT22;6196;48.398;11.736;2023-02-04T07:43:52;4.80;99.90
12268;DHT22;6196;48.398;11.736;2023-02-04T07:46:19;4.80;99.90
12268;DHT22;6196;48.398;11.736;2023-02-04T07:48:46;4.80;99.90
12268;DHT22;6196;48.398;11.736;2023-02-04T07:51:13;4.70;99.90
12268;DHT22;6196;48.398;11.736;2023-02-04T07:53:39;4.60;99.90
12268;DHT22;6196;48.398;11.736;2023-02-04T07:56:06;4.70;99.90
12268;DHT22;6196;48.398;11.736;2023-02-04T07:58:33;4.60;99.90
12268;DHT22;6196;48.398;11.736;2023-02-04T08:01:00;4.60;99.90
12268;DHT22;6196;48.398;11.736;2023-02-04T08:03:27;4.40;99.90
12268;DHT22;6196;48.398;11.736;2023-02-04T08:05:54;4.40;99.90
12268;DHT22;6196;48.398;11.736;2023-02-04T08:08:21;4.50;99.90
12268;DHT22;6196;48.398;11.736;2023-02-04T08:10:48;4.50;99.90
12268;DHT22;6196;48.398;11.736;2023-02-04T08:13:15;4.60;99.90
12268;DHT22;6196;48.398;11.736;2023-02-04T08:15:42;4.70;99.90
12268;DHT22;6196;48.398;11.736;2023-02-04T08:18:09;4.90;99.90
12268;DHT22;6196;48.398;11.736;2023-02-04T08:20:36;4.90;99.90
12268;DHT22;6196;48.398;11.736;2023-02-04T08:23:03;5.00;99.90
12268;DHT22;6196;48.398;11.736;2023-02-04T08:25:30;5.00;99.90
12268;DHT22;6196;48.398;11.736;2023-02-04T08:27:56;5.20;99.90
12268;DHT22;6196;48.398;11.736;2023-02-04T08:30:24;5.30;99.90
12268;DHT22;6196;48.398;11.736;2023-02-04T08:32:50;5.30;99.90
12268;DHT22;6196;48.398;11.736;2023-02-04T08:35:18;5.30;99.90
12268;DHT22;6196;48.398;11.736;2023-02-04T08:37:45;5.40;99.90
12268;DHT22;6196;48.398;11.736;2023-02-04T08:40:11;5.30;99.90
12268;DHT22;6196;48.398;11.736;2023-02-04T08:42:38;5.40;99.90
12268;DHT22;6196;48.398;11.736;2023-02-04T08:45:05;5.40;99.90
12268;DHT22;6196;48.398;11.736;2023-02-04T08:47:32;5.50;99.90
12268;DHT22;6196;48.398;11.736;2023-02-04T08:49:59;5.40;99.90
12268;DHT22;6196;48.398;11.736;2023-02-04T08:52:26;5.30;99.90
12268;DHT22;6196;48.398;11.736;2023-02-04T08:54:53;5.30;99.90
12268;DHT22;6196;48.398;11.736;2023-02-04T08:57:20;5.40;99.90
12268;DHT22;6196;48.398;11.736;2023-02-04T08:59:47;5.00;99.90
12268;DHT22;6196;48.398;11.736;2023-02-04T09:02:14;4.70;99.90
12268;DHT22;6196;48.398;11.736;2023-02-04T09:04:40;4.70;99.90
12268;DHT22;6196;48.398;11.736;2023-02-04T09:07:07;4.60;99.90
12268;DHT22;6196;48.398;11.736;2023-02-04T09:09:34;4.40;99.90
12268;DHT22;6196;48.398;11.736;2023-02-04T09:12:01;4.40;99.90
12268;DHT22;6196;48.398;11.736;2023-02-04T09:14:28;4.40;99.90
12268;DHT22;6196;48.398;11.736;2023-02-04T09:16:55;4.20;99.90
12268;DHT22;6196;48.398;11.736;2023-02-04T09:19:22;4.10;99.90
12268;DHT22;6196;48.398;11.736;2023-02-04T09:21:52;4.00;99.90
12268;DHT22;6196;48.398;11.736;2023-02-04T09:24:19;4.00;99.90
12268;DHT22;6196;48.398;11.736;2023-02-04T09:26:49;3.80;99.90
12268;DHT22;6196;48.398;11.736;2023-02-04T09:29:16;3.90;99.90
12268;DHT22;6196;48.398;11.736;2023-02-04T09:31:43;3.90;99.90
12268;DHT22;6196;48.398;11.736;2023-02-04T09:34:09;3.80;99.90
12268;DHT22;6196;48.398;11.736;2023-02-04T09:36:36;3.80;99.90
12268;DHT22;6196;48.398;11.736;2023-02-04T09:39:05;4.00;99.90
12268;DHT22;6196;48.398;11.736;2023-02-04T09:41:33;4.10;99.90
12268;DHT22;6196;48.398;11.736;2023-02-04T09:44:00;4.10;99.90
12268;DHT22;6196;48.398;11.736;2023-02-04T09:46:30;4.00;99.90
12268;DHT22;6196;48.398;11.736;2023-02-04T09:48:58;4.20;99.90
12268;DHT22;6196;48.398;11.736;2023-02-04T09:51:27;4.20;99.90
12268;DHT22;6196;48.398;11.736;2023-02-04T09:54:16;4.40;99.90
12268;DHT22;6196;48.398;11.736;2023-02-04T09:56:44;4.60;99.90
12268;DHT22;6196;48.398;11.736;2023-02-04T09:59:20;4.50;99.90
12268;DHT22;6196;48.398;11.736;2023-02-04T10:01:58;4.70;99.90
12268;DHT22;6196;48.398;11.736;2023-02-04T10:04:26;4.90;99.90
12268;DHT22;6196;48.398;11.736;2023-02-04T10:06:55;5.40;99.90
12268;DHT22;6196;48.398;11.736;2023-02-04T10:09:24;5.90;99.90
12268;DHT22;6196;48.398;11.736;2023-02-04T10:11:51;5.80;99.90
12268;DHT22;6196;48.398;11.736;2023-02-04T10:14:20;5.90;99.90
12268;DHT22;6196;48.398;11.736;2023-02-04T10:16:59;5.90;99.90
12268;DHT22;6196;48.398;11.736;2023-02-04T10:19:28;5.80;99.90
12268;DHT22;6196;48.398;11.736;2023-02-04T10:21:56;5.90;99.90
12268;DHT22;6196;48.398;11.736;2023-02-04T10:24:24;5.80;99.90
12268;DHT22;6196;48.398;11.736;2023-02-04T10:26:52;5.80;99.90
12268;DHT22;6196;48.398;11.736;2023-02-04T10:29:22;5.80;99.90
12268;DHT22;6196;48.398;11.736;2023-02-04T10:31:51;5.80;99.90
12268;DHT22;6196;48.398;11.736;2023-02-04T10:34:19;5.70;99.90
12268;DHT22;6196;48.398;11.736;2023-02-04T10:36:52;5.60;99.90
12268;DHT22;6196;48.398;11.736;2023-02-04T10:39:23;5.40;99.90
12268;DHT22;6196;48.398;11.736;2023-02-04T10:41:53;5.30;99.90
12268;DHT22;6196;48.398;11.736;2023-02-04T10:47:06;5.30;99.90
12268;DHT22;6196;48.398;11.736;2023-02-04T10:50:14;5.30;99.90
12268;DHT22;6196;48.398;11.736;2023-02-04T10:52:46;5.40;99.90
12268;DHT22;6196;48.398;11.736;2023-02-04T10:55:22;5.50;99.90
12268;DHT22;6196;48.398;11.736;2023-02-04T10:57:51;5.50;99.90
12268;DHT22;6196;48.398;11.736;2023-02-04T11:00:20;5.60;99.90
12268;DHT22;6196;48.398;11.736;2023-02-04T11:02:59;5.70;99.90
12268;DHT22;6196;48.398;11.736;2023-02-04T11:05:34;5.80;99.90
12268;DHT22;6196;48.398;11.736;2023-02-04T11:08:03;5.80;99.90
12268;DHT22;6196;48.398;11.736;2023-02-04T11:11:02;5.70;99.90
12268;DHT22;6196;48.398;11.736;2023-02-04T11:21:27;5.90;99.90
12268;DHT22;6196;48.398;11.736;2023-02-04T11:39:46;8.40;99.90
12268;DHT22;6196;48.398;11.736;2023-02-04T11:45:12;8.30;99.90
12268;DHT22;6196;48.398;11.736;2023-02-04T11:47:40;8.30;99.90
12268;DHT22;6196;48.398;11.736;2023-02-04T11:50:27;8.40;99.90
12268;DHT22;6196;48.398;11.736;2023-02-04T11:53:00;8.10;99.90
12268;DHT22;6196;48.398;11.736;2023-02-04T11:55:29;7.80;99.90
12268;DHT22;6196;48.398;11.736;2023-02-04T11:57:57;7.70;99.90
12268;DHT22;6196;48.398;11.736;2023-02-04T12:00:28;7.50;99.90
12268;DHT22;6196;48.398;11.736;2023-02-04T12:03:03;7.30;99.90
12268;DHT22;6196;48.398;11.736;2023-02-04T12:05:41;7.00;99.90
12268;DHT22;6196;48.398;11.736;2023-02-04T12:13:49;7.60;99.90
12268;DHT22;6196;48.398;11.736;2023-02-04T12:16:17;8.70;99.90
12268;DHT22;6196;48.398;11.736;2023-02-04T12:18:44;10.20;99.90
12268;DHT22;6196;48.398;11.736;2023-02-04T12:21:11;12.20;99.90
12268;DHT22;6196;48.398;11.736;2023-02-04T12:23:40;13.30;99.90
12268;DHT22;6196;48.398;11.736;2023-02-04T12:26:10;14.20;99.90
12268;DHT22;6196;48.398;11.736;2023-02-04T12:28:38;14.40;99.90
12268;DHT22;6196;48.398;11.736;2023-02-04T12:31:05;13.60;99.90
12268;DHT22;6196;48.398;11.736;2023-02-04T12:33:32;12.20;99.90
12268;DHT22;6196;48.398;11.736;2023-02-04T12:35:59;10.60;99.90
12268;DHT22;6196;48.398;11.736;2023-02-04T12:38:26;9.70;99.90
12268;DHT22;6196;48.398;11.736;2023-02-04T12:40:53;8.90;99.90
12268;DHT22;6196;48.398;11.736;2023-02-04T12:43:20;8.80;99.90
12268;DHT22;6196;48.398;11.736;2023-02-04T12:45:47;8.40;99.90
12268;DHT22;6196;48.398;11.736;2023-02-04T12:48:15;8.20;99.90
12268;DHT22;6196;48.398;11.736;2023-02-04T12:50:42;8.30;99.90
12268;DHT22;6196;48.398;11.736;2023-02-04T12:53:09;8.50;99.90
12268;DHT22;6196;48.398;11.736;2023-02-04T12:55:36;8.50;99.90
12268;DHT22;6196;48.398;11.736;2023-02-04T12:58:03;8.40;99.90
12268;DHT22;6196;48.398;11.736;2023-02-04T13:00:30;7.90;99.90
12268;DHT22;6196;48.398;11.736;2023-02-04T13:02:57;7.50;99.90
12268;DHT22;6196;48.398;11.736;2023-02-04T13:05:25;7.30;99.90
12268;DHT22;6196;48.398;11.736;2023-02-04T13:07:52;7.20;99.90
12268;DHT22;6196;48.398;11.736;2023-02-04T13:10:19;7.10;99.90
12268;DHT22;6196;48.398;11.736;2023-02-04T13:12:47;7.10;99.90
12268;DHT22;6196;48.398;11.736;2023-02-04T13:15:14;7.10;99.90
12268;DHT22;6196;48.398;11.736;2023-02-04T13:17:41;7.10;99.90
12268;DHT22;6196;48.398;11.736;2023-02-04T13:20:09;7.00;99.90
12268;DHT22;6196;48.398;11.736;2023-02-04T13:22:36;6.70;99.90
12268;DHT22;6196;48.398;11.736;2023-02-04T13:25:03;6.70;99.90
12268;DHT22;6196;48.398;11.736;2023-02-04T13:27:31;6.50;99.90
12268;DHT22;6196;48.398;11.736;2023-02-04T13:29:58;6.60;99.90
12268;DHT22;6196;48.398;11.736;2023-02-04T13:32:24;6.40;99.90
12268;DHT22;6196;48.398;11.736;2023-02-04T13:34:51;6.40;99.90
12268;DHT22;6196;48.398;11.736;2023-02-04T13:37:18;6.20;99.90
12268;DHT22;6196;48.398;11.736;2023-02-04T13:39:45;6.20;99.90
12268;DHT22;6196;48.398;11.736;2023-02-04T13:42:12;6.30;99.90
12268;DHT22;6196;48.398;11.736;2023-02-04T13:44:39;6.20;99.90
12268;DHT22;6196;48.398;11.736;2023-02-04T13:47:06;6.10;99.90
12268;DHT22;6196;48.398;11.736;2023-02-04T13:49:33;6.10;99.90
12268;DHT22;6196;48.398;11.736;2023-02-04T13:52:00;6.10;99.90
12268;DHT22;6196;48.398;11.736;2023-02-04T13:54:27;6.20;99.90
12268;DHT22;6196;48.398;11.736;2023-02-04T13:56:54;6.30;99.90
12268;DHT22;6196;48.398;11.736;2023-02-04T13:59:20;6.00;99.90
12268;DHT22;6196;48.398;11.736;2023-02-04T14:01:47;6.10;99.90
12268;DHT22;6196;48.398;11.736;2023-02-04T14:04:14;6.10;99.90
12268;DHT22;6196;48.398;11.736;2023-02-04T14:06:41;6.00;99.90
12268;DHT22;6196;48.398;11.736;2023-02-04T14:09:11;6.00;99.90
12268;DHT22;6196;48.398;11.736;2023-02-04T14:11:38;6.10;99.90
12268;DHT22;6196;48.398;11.736;2023-02-04T14:14:05;6.20;99.90
12268;DHT22;6196;48.398;11.736;2023-02-04T14:16:32;6.20;99.90
12268;DHT22;6196;48.398;11.736;2023-02-04T14:19:03;6.20;99.90
12268;DHT22;6196;48.398;11.736;2023-02-04T14:21:31;6.20;99.90
12268;DHT22;6196;48.398;11.736;2023-02-04T14:23:58;6.10;99.90
12268;DHT22;6196;48.398;11.736;2023-02-04T14:26:25;6.20;99.90
12268;DHT22;6196;48.398;11.736;2023-02-04T14:28:52;6.50;99.90
12268;DHT22;6196;48.398;11.736;2023-02-04T14:31:20;6.40;99.90
12268;DHT22;6196;48.398;11.736;2023-02-04T14:33:47;6.10;99.90
12268;DHT22;6196;48.398;11.736;2023-02-04T14:36:15;6.10;99.90
12268;DHT22;6196;48.398;11.736;2023-02-04T14:38:42;5.90;99.90
12268;DHT22;6196;48.398;11.736;2023-02-04T14:41:09;5.90;99.90
12268;DHT22;6196;48.398;11.736;2023-02-04T14:43:41;5.60;99.90
12268;DHT22;6196;48.398;11.736;2023-02-04T14:46:08;5.50;99.90
12268;DHT22;6196;48.398;11.736;2023-02-04T14:48:35;5.30;99.90
12268;DHT22;6196;48.398;11.736;2023-02-04T14:51:02;5.30;99.90
12268;DHT22;6196;48.398;11.736;2023-02-04T14:53:30;5.20;99.90
12268;DHT22;6196;48.398;11.736;2023-02-04T14:55:57;5.20;99.90
12268;DHT22;6196;48.398;11.736;2023-02-04T14:58:24;5.20;99.90
12268;DHT22;6196;48.398;11.736;2023-02-04T15:00:53;5.30;99.90
12268;DHT22;6196;48.398;11.736;2023-02-04T15:03:20;5.30;99.90
12268;DHT22;6196;48.398;11.736;2023-02-04T15:05:47;5.80;99.90
12268;DHT22;6196;48.398;11.736;2023-02-04T15:08:14;6.10;99.90
12268;DHT22;6196;48.398;11.736;2023-02-04T15:10:41;6.70;99.90
12268;DHT22;6196;48.398;11.736;2023-02-04T15:13:08;7.40;99.90
12268;DHT22;6196;48.398;11.736;2023-02-04T15:15:34;8.30;99.90
12268;DHT22;6196;48.398;11.736;2023-02-04T15:18:01;8.70;99.90
12268;DHT22;6196;48.398;11.736;2023-02-04T15:20:28;9.30;99.90
12268;DHT22;6196;48.398;11.736;2023-02-04T15:22:55;10.20;99.90
12268;DHT22;6196;48.398;11.736;2023-02-04T15:25:23;11.30;99.90
12268;DHT22;6196;48.398;11.736;2023-02-04T15:27:50;11.70;99.90
12268;DHT22;6196;48.398;11.736;2023-02-04T15:30:17;11.10;99.90
12268;DHT22;6196;48.398;11.736;2023-02-04T15:32:44;10.60;99.90
12268;DHT22;6196;48.398;11.736;2023-02-04T15:35:12;9.80;99.90
12268;DHT22;6196;48.398;11.736;2023-02-04T15:37:39;8.90;99.90
12268;DHT22;6196;48.398;11.736;2023-02-04T15:40:06;7.60;99.90
12268;DHT22;6196;48.398;11.736;2023-02-04T15:42:34;6.50;99.90
12268;DHT22;6196;48.398;11.736;2023-02-04T15:45:02;6.20;99.90
12268;DHT22;6196;48.398;11.736;2023-02-04T15:47:30;5.70;99.90
12268;DHT22;6196;48.398;11.736;2023-02-04T15:49:57;5.30;99.90
12268;DHT22;6196;48.398;11.736;2023-02-04T15:52:24;5.10;99.90
12268;DHT22;6196;48.398;11.736;2023-02-04T15:54:52;4.80;99.90
12268;DHT22;6196;48.398;11.736;2023-02-04T15:57:19;4.70;99.90
12268;DHT22;6196;48.398;11.736;2023-02-04T15:59:46;4.50;99.90
12268;DHT22;6196;48.398;11.736;2023-02-04T16:02:12;4.30;99.90
12268;DHT22;6196;48.398;11.736;2023-02-04T16:04:39;4.10;99.90
12268;DHT22;6196;48.398;11.736;2023-02-04T16:07:10;3.80;99.90
12268;DHT22;6196;48.398;11.736;2023-02-04T16:09:37;3.60;99.90
12268;DHT22;6196;48.398;11.736;2023-02-04T16:12:05;3.50;99.90
12268;DHT22;6196;48.398;11.736;2023-02-04T16:14:32;3.40;99.90
12268;DHT22;6196;48.398;11.736;2023-02-04T16:16:59;3.30;99.90
12268;DHT22;6196;48.398;11.736;2023-02-04T16:19:27;3.20;99.90
12268;DHT22;6196;48.398;11.736;2023-02-04T16:21:54;3.10;99.90
12268;DHT22;6196;48.398;11.736;2023-02-04T16:24:21;3.00;99.90
12268;DHT22;6196;48.398;11.736;2023-02-04T16:26:48;2.90;99.90